Search for airport 
image banner adimage banner adimage banner ad
image banner ad

KSKI - Sac City Muni

Located in Sac City, United States

ICAO - SKI, IATA -

Data provided by Airmate  

General information

Coordinates: N42°22'45" W94°58'47"
Elevation is 1250 feet MSL.
Magnetic variation is 04° East
View others Airports in Iowa

Operational data

Special qualification required
Current time UTC:
Current local time:
Weather at : KSLB - Storm Lake Muni ( 32 km )
METAR: KSLB 181715Z AUTO 13005KT 10SM CLR 27/13 A2990 RMK AO2
View NOTAMs / SUP AIP / TFR affecting this airport [VIEW]
Communications frequencies: [VIEW]

Runways:

RWY identifierQFULength (ft)Width (ft)SurfaceLDA (ft)
14147°235060CONC
32327°235060CONC
18181°410075CONC
36410075CONC

Airport contact information

Address: Sac City United States

Satellite view of KSKI